createdAt,value
2019-01-22T00:01:35.288Z,200.07
2019-01-22T00:04:05.182Z,186.13
2019-01-22T00:06:34.880Z,148.73
2019-01-22T00:09:07.884Z,197.37
2019-01-22T00:11:37.555Z,172.17
2019-01-22T00:14:07.157Z,223.73
2019-01-22T00:16:37.053Z,223.00
2019-01-22T00:19:07.867Z,250.83
2019-01-22T00:21:39.698Z,252.23
2019-01-22T00:24:10.055Z,167.63
2019-01-22T00:26:39.909Z,196.50
2019-01-22T00:29:09.539Z,143.57
2019-01-22T00:31:39.141Z,228.87
2019-01-22T00:34:08.817Z,180.97
2019-01-22T00:36:39.348Z,197.50
2019-01-22T00:39:09.754Z,208.07
2019-01-22T00:41:40.641Z,162.97
2019-01-22T00:44:11.526Z,216.60
2019-01-22T00:46:43.070Z,133.87
2019-01-22T00:49:13.900Z,208.23
2019-01-22T00:51:43.910Z,203.73
2019-01-22T00:54:15.423Z,197.23
2019-01-22T00:56:46.051Z,283.03
2019-01-22T00:59:15.726Z,249.87
2019-01-22T01:01:45.511Z,227.27
2019-01-22T01:04:15.129Z,248.87
2019-01-22T01:06:44.733Z,162.30
2019-01-22T01:09:14.442Z,260.23
2019-01-22T01:11:44.118Z,274.10
2019-01-22T01:14:13.766Z,273.80
2019-01-22T01:16:44.671Z,189.63
2019-01-22T01:19:14.724Z,213.17
2019-01-22T01:21:45.063Z,229.47
2019-01-22T01:24:14.867Z,259.60
2019-01-22T01:26:44.544Z,168.67
2019-01-22T01:29:14.418Z,232.43
2019-01-22T01:31:44.397Z,245.57
2019-01-22T01:34:15.044Z,274.30
2019-01-22T01:36:44.701Z,230.63
2019-01-22T01:39:14.631Z,262.13
2019-01-22T01:41:44.517Z,218.27
2019-01-22T01:44:14.175Z,202.00
2019-01-22T01:46:44.207Z,213.23
2019-01-22T01:49:13.874Z,254.50
2019-01-22T01:51:43.486Z,180.83
2019-01-22T01:54:13.306Z,201.77
2019-01-22T01:56:42.957Z,250.53
2019-01-22T01:59:12.603Z,143.23
2019-01-22T02:01:42.304Z,222.87
2019-01-22T02:04:11.923Z,144.60
2019-01-22T02:06:42.566Z,129.33
2019-01-22T02:09:12.422Z,207.70
2019-01-22T02:11:42.432Z,205.73
2019-01-22T02:14:14.216Z,132.70
2019-01-22T02:17:06.062Z,84.63
2019-01-22T02:20:17.401Z,162.90
2019-01-22T02:23:08.494Z,235.20
2019-01-22T02:26:17.190Z,125.77
2019-01-22T02:29:49.518Z,84.43
2019-01-22T02:32:46.679Z,161.53
2019-01-22T02:35:36.325Z,103.00
2019-01-22T02:38:34.625Z,175.73
2019-01-22T02:41:18.158Z,143.50
2019-01-22T02:44:24.267Z,121.13
2019-01-22T02:47:42.499Z,275.37
2019-01-22T02:50:50.144Z,408.73
2019-01-22T02:53:44.212Z,320.73
2019-01-22T02:56:44.291Z,180.13
2019-01-22T03:00:02.030Z,282.40
2019-01-22T03:03:00.721Z,281.63
2019-01-22T03:05:47.566Z,266.30
2019-01-22T03:09:02.348Z,236.80
2019-01-22T03:11:52.946Z,323.33
2019-01-22T03:15:28.673Z,212.63
2019-01-22T03:18:41.654Z,130.00
2019-01-22T03:21:26.986Z,228.25
2019-01-22T03:24:11.166Z,276.23
2019-01-22T03:27:16.087Z,265.60
2019-01-22T03:30:21.743Z,304.03
2019-01-22T03:33:22.328Z,288.83
2019-01-22T03:36:30.310Z,153.70
2019-01-22T03:39:25.530Z,265.90
2019-01-22T03:42:31.548Z,287.33
2019-01-22T03:45:21.902Z,298.93
2019-01-22T03:48:33.315Z,331.13
2019-01-22T03:51:17.426Z,127.97
2019-01-22T03:54:19.898Z,137.10
2019-01-22T03:57:19.544Z,231.00
2019-01-22T03:59:50.243Z,136.57
2019-01-22T04:02:20.543Z,162.43
2019-01-22T04:04:50.177Z,189.03
2019-01-22T04:07:19.795Z,228.93
2019-01-22T04:10:12.607Z,128.43
2019-01-22T04:12:42.282Z,109.60
2019-01-22T04:15:15.324Z,201.92
2019-01-22T04:17:45.015Z,144.90
2019-01-22T04:20:15.230Z,159.17
2019-01-22T04:22:55.378Z,194.70
2019-01-22T04:25:42.198Z,202.73
2019-01-22T04:28:51.740Z,119.40
2019-01-22T04:31:28.485Z,144.77
2019-01-22T04:34:31.805Z,162.37
2019-01-22T04:37:55.002Z,85.93
2019-01-22T04:41:02.607Z,233.93
2019-01-22T04:44:23.525Z,238.60
2019-01-22T04:47:11.473Z,245.97
2019-01-22T04:50:11.257Z,230.70
2019-01-22T04:53:25.752Z,186.83
2019-01-22T04:56:45.377Z,234.83
2019-01-22T04:59:50.305Z,275.93
2019-01-22T05:02:55.190Z,352.87
2019-01-22T05:06:06.317Z,194.27
2019-01-22T05:08:54.978Z,355.33
2019-01-22T05:11:54.004Z,302.63
2019-01-22T05:14:41.883Z,255.27
2019-01-22T05:17:21.570Z,177.43
2019-01-22T05:20:25.174Z,126.43
2019-01-22T05:23:07.778Z,104.23
2019-01-22T05:26:26.165Z,103.77
2019-01-22T05:29:43.222Z,205.37
2019-01-22T05:32:50.237Z,135.20
2019-01-22T05:35:46.884Z,136.67
2019-01-22T05:38:43.222Z,115.27
2019-01-22T05:41:29.990Z,176.03
2019-01-22T05:44:18.518Z,115.00
2019-01-22T05:47:31.500Z,147.00
2019-01-22T05:50:24.472Z,143.50
2019-01-22T05:53:42.483Z,138.53
2019-01-22T05:56:16.510Z,184.87
2019-01-22T05:59:23.819Z,180.77
2019-01-22T06:02:03.325Z,117.83
2019-01-22T06:05:26.511Z,183.07
2019-01-22T06:08:11.911Z,81.33
2019-01-22T06:11:38.174Z,93.80
2019-01-22T06:14:53.448Z,109.93
2019-01-22T06:18:07.676Z,119.40
2019-01-22T06:21:21.798Z,105.40
2019-01-22T06:24:33.220Z,92.50
2019-01-22T06:27:07.712Z,84.23
2019-01-22T06:30:02.007Z,67.67
2019-01-22T06:32:45.936Z,86.03
2019-01-22T06:35:41.357Z,70.27
2019-01-22T06:38:36.932Z,101.83
2019-01-22T06:41:48.145Z,113.53
2019-01-22T06:44:55.867Z,86.20
2019-01-22T06:47:38.265Z,97.37
2019-01-22T06:50:23.033Z,102.97
2019-01-22T06:53:10.750Z,96.70
2019-01-22T06:56:06.266Z,98.43
2019-01-22T06:59:35.536Z,59.27
2019-01-22T07:02:30.717Z,61.40
2019-01-22T07:05:05.863Z,60.20
2019-01-22T07:08:17.537Z,74.80
2019-01-22T07:11:10.910Z,60.90
2019-01-22T07:14:01.671Z,58.27
2019-01-22T07:16:53.008Z,61.47
2019-01-22T07:19:41.454Z,62.57
2019-01-22T07:22:28.046Z,74.90
2019-01-22T07:25:38.937Z,67.67
2019-01-22T07:28:39.730Z,60.27
2019-01-22T07:31:38.657Z,68.70
2019-01-22T07:34:23.004Z,94.97
2019-01-22T07:37:19.900Z,110.67
2019-01-22T07:40:43.073Z,137.57
2019-01-22T07:43:36.719Z,114.80
2019-01-22T07:46:41.498Z,94.83
2019-01-22T07:49:52.535Z,84.83
2019-01-22T07:52:47.955Z,95.97
2019-01-22T07:55:39.550Z,140.40
2019-01-22T07:58:39.887Z,124.43
2019-01-22T08:01:48.956Z,140.43
2019-01-22T08:04:52.109Z,167.93
2019-01-22T08:08:19.350Z,147.57
2019-01-22T08:11:38.839Z,151.77
2019-01-22T08:14:49.178Z,151.00
2019-01-22T08:17:35.074Z,198.90
2019-01-22T08:20:54.242Z,171.22
2019-01-22T08:23:42.210Z,138.80
2019-01-22T08:27:02.311Z,120.43
2019-01-22T08:29:58.288Z,106.03
2019-01-22T08:32:56.050Z,64.97
2019-01-22T08:36:14.218Z,70.17
2019-01-22T08:39:28.226Z,79.30
2019-01-22T08:42:28.935Z,96.70
2019-01-22T08:45:18.887Z,106.93
2019-01-22T08:48:18.346Z,91.90
2019-01-22T08:51:07.926Z,86.77
2019-01-22T08:53:57.458Z,83.10
2019-01-22T08:57:05.583Z,88.60
2019-01-22T09:00:16.942Z,71.47
2019-01-22T09:03:16.539Z,82.10
2019-01-22T09:06:08.820Z,80.27
2019-01-22T09:08:54.292Z,67.10
2019-01-22T09:12:02.994Z,59.97
2019-01-22T09:15:19.825Z,63.17
2019-01-22T09:18:33.514Z,72.43
2019-01-22T09:21:35.213Z,74.50
2019-01-22T09:24:38.613Z,82.23
2019-01-22T09:27:59.351Z,67.40
2019-01-22T09:30:40.531Z,55.13
2019-01-22T09:33:49.611Z,65.07
2019-01-22T09:36:43.124Z,46.70
2019-01-22T09:39:15.797Z,47.73
2019-01-22T09:41:45.599Z,63.13
2019-01-22T09:44:15.265Z,60.77
2019-01-22T09:46:44.878Z,56.83
2019-01-22T09:49:14.568Z,48.07
2019-01-22T09:51:44.324Z,55.33
2019-01-22T09:54:13.930Z,51.20
2019-01-22T09:56:43.571Z,64.50
2019-01-22T09:59:13.167Z,50.27
2019-01-22T10:01:42.815Z,46.20
2019-01-22T10:04:12.465Z,59.57
2019-01-22T10:06:42.098Z,45.23
2019-01-22T10:09:12.393Z,59.97
2019-01-22T10:11:42.231Z,60.60
2019-01-22T10:14:12.198Z,40.43
2019-01-22T10:16:41.949Z,55.77
2019-01-22T10:19:11.578Z,62.50
2019-01-22T10:21:41.181Z,63.27
2019-01-22T10:24:10.838Z,60.47
2019-01-22T10:26:41.598Z,66.57
2019-01-22T10:29:11.208Z,78.40
2019-01-22T10:31:40.840Z,68.97
2019-01-22T10:34:10.768Z,60.03
2019-01-22T10:36:40.446Z,62.93
2019-01-22T10:39:10.140Z,46.77
2019-01-22T10:41:39.781Z,68.33
2019-01-22T10:44:09.454Z,63.20
2019-01-22T10:46:39.181Z,66.90
2019-01-22T10:49:08.794Z,74.97
2019-01-22T10:51:38.466Z,58.93
2019-01-22T10:54:08.186Z,64.30
2019-01-22T10:56:37.888Z,69.77
2019-01-22T10:59:07.561Z,70.50
2019-01-22T11:01:37.154Z,84.63
2019-01-22T11:04:06.858Z,75.33
2019-01-22T11:06:36.565Z,93.07
2019-01-22T11:09:07.798Z,79.73
2019-01-22T11:11:37.762Z,74.00
2019-01-22T11:14:07.459Z,67.27
2019-01-22T11:16:37.133Z,75.13
2019-01-22T11:19:06.929Z,66.90
2019-01-22T11:21:36.530Z,74.50
2019-01-22T11:24:06.155Z,75.37
2019-01-22T11:26:35.762Z,71.92
2019-01-22T11:29:05.582Z,74.10
2019-01-22T11:31:35.233Z,100.23
2019-01-22T11:34:05.217Z,92.20
2019-01-22T11:36:34.918Z,106.23
2019-01-22T11:39:09.499Z,87.63
2019-01-22T11:41:39.194Z,80.33
2019-01-22T11:44:08.802Z,64.57
2019-01-22T11:46:38.393Z,89.50
2019-01-22T11:49:08.007Z,71.23
2019-01-22T11:51:37.690Z,70.13
2019-01-22T11:54:07.412Z,51.77
2019-01-22T11:56:37.013Z,60.20
2019-01-22T11:59:06.743Z,68.20
2019-01-22T12:01:36.359Z,73.27
2019-01-22T12:04:06.227Z,71.87
2019-01-22T12:06:35.861Z,60.67
2019-01-22T12:09:07.993Z,64.97
2019-01-22T12:11:37.623Z,59.70
2019-01-22T12:14:07.537Z,61.03
2019-01-22T12:16:37.150Z,60.93
2019-01-22T12:19:06.858Z,53.50
2019-01-22T12:21:36.471Z,55.30
2019-01-22T12:24:07.241Z,61.20
2019-01-22T12:26:36.851Z,60.87
2019-01-22T12:29:07.114Z,51.17
2019-01-22T12:31:36.711Z,66.30
2019-01-22T12:34:06.420Z,63.87
2019-01-22T12:36:36.094Z,63.73
2019-01-22T12:39:09.350Z,55.50
2019-01-22T12:41:39.028Z,57.57
2019-01-22T12:44:08.750Z,58.10
2019-01-22T12:46:38.339Z,38.77
2019-01-22T12:49:08.023Z,56.20
2019-01-22T12:51:37.722Z,47.97
2019-01-22T12:54:07.361Z,55.17
2019-01-22T12:56:36.986Z,43.40
2019-01-22T12:59:06.607Z,55.40
2019-01-22T13:01:36.285Z,53.37
2019-01-22T13:04:06.324Z,55.97
2019-01-22T13:06:35.938Z,48.67
2019-01-22T13:09:07.649Z,49.67
2019-01-22T13:11:37.283Z,54.27
2019-01-22T13:14:06.970Z,59.23
2019-01-22T13:16:36.585Z,45.50
2019-01-22T13:19:06.290Z,55.30
2019-01-22T13:21:35.951Z,48.50
2019-01-22T13:24:05.714Z,47.73
2019-01-22T13:26:35.327Z,49.23
2019-01-22T13:29:05.067Z,46.20
2019-01-22T13:31:34.694Z,39.20
2019-01-22T13:34:04.897Z,37.83
2019-01-22T13:36:34.517Z,45.57
2019-01-22T13:39:08.285Z,42.93
2019-01-22T13:41:37.990Z,49.17
2019-01-22T13:44:07.582Z,48.30
2019-01-22T13:46:37.241Z,49.63
2019-01-22T13:49:06.843Z,48.37
2019-01-22T13:51:36.440Z,50.33
2019-01-22T13:54:06.186Z,49.17
2019-01-22T13:56:36.082Z,46.03
2019-01-22T13:59:06.018Z,44.87
2019-01-22T14:01:35.631Z,49.77
2019-01-22T14:04:05.366Z,38.37
2019-01-22T14:06:35.127Z,40.73
2019-01-22T14:09:07.962Z,37.98
2019-01-22T14:11:37.688Z,41.77
2019-01-22T14:14:07.354Z,37.67
2019-01-22T14:16:37.001Z,36.67
2019-01-22T14:19:06.994Z,37.90
2019-01-22T14:21:36.683Z,33.20
2019-01-22T14:24:06.265Z,33.70
2019-01-22T14:26:36.228Z,40.03
2019-01-22T14:29:05.978Z,38.67
2019-01-22T14:31:35.625Z,38.90
2019-01-22T14:34:05.294Z,39.43
2019-01-22T14:36:35.023Z,39.97
2019-01-22T14:39:07.264Z,38.20
2019-01-22T14:41:36.918Z,36.97
2019-01-22T14:44:06.687Z,37.73
2019-01-22T14:46:36.338Z,36.20
2019-01-22T14:49:06.057Z,35.10
2019-01-22T14:51:35.894Z,38.17
2019-01-22T14:54:05.846Z,31.80
2019-01-22T14:56:35.497Z,34.63
2019-01-22T14:59:05.380Z,37.77
2019-01-22T15:01:35.228Z,34.20
2019-01-22T15:04:05.449Z,42.53
2019-01-22T15:06:35.316Z,34.77
2019-01-22T15:09:07.562Z,35.13
2019-01-22T15:11:37.513Z,42.17
2019-01-22T15:14:07.289Z,35.13
2019-01-22T15:16:37.078Z,37.60
2019-01-22T15:19:06.897Z,38.43
2019-01-22T15:21:36.578Z,28.57
2019-01-22T15:24:06.382Z,34.70
2019-01-22T15:26:39.508Z,38.20
2019-01-22T15:29:08.678Z,39.10
2019-01-22T15:31:38.450Z,31.57
2019-01-22T15:34:08.180Z,37.63
2019-01-22T15:36:37.842Z,39.90
2019-01-22T15:39:09.215Z,30.47
2019-01-22T15:41:39.053Z,31.27
2019-01-22T15:44:08.816Z,32.00
2019-01-22T15:46:38.595Z,31.27
2019-01-22T15:49:08.407Z,30.57
2019-01-22T15:51:38.176Z,35.77
2019-01-22T15:54:07.841Z,29.40
2019-01-22T15:56:37.534Z,35.27
2019-01-22T15:59:07.322Z,32.43
2019-01-22T16:01:37.189Z,32.33
2019-01-22T16:04:06.937Z,35.73
2019-01-22T16:06:36.595Z,32.33
2019-01-22T16:09:07.790Z,36.60
2019-01-22T16:11:37.478Z,35.13
2019-01-22T16:14:07.186Z,48.27
2019-01-22T16:16:37.099Z,33.92
2019-01-22T16:19:06.751Z,38.47
2019-01-22T16:21:36.566Z,35.87
2019-01-22T16:24:06.275Z,31.40
2019-01-22T16:26:36.019Z,35.07
2019-01-22T16:29:05.888Z,39.43
2019-01-22T16:31:35.513Z,43.02
2019-01-22T16:34:05.454Z,35.47
2019-01-22T16:36:35.148Z,42.70
2019-01-22T16:39:07.311Z,32.23
2019-01-22T16:41:37.121Z,34.27
2019-01-22T16:44:06.740Z,33.23
2019-01-22T16:46:37.393Z,36.10
2019-01-22T16:49:07.101Z,32.50
2019-01-22T16:51:36.843Z,30.57
2019-01-22T16:54:06.569Z,34.73
2019-01-22T16:56:36.233Z,25.63
2019-01-22T16:59:09.374Z,27.47
2019-01-22T17:01:39.149Z,30.47
2019-01-22T17:04:08.973Z,33.73
2019-01-22T17:06:38.849Z,26.63
2019-01-22T17:09:09.111Z,27.50
2019-01-22T17:11:38.849Z,36.50
2019-01-22T17:14:08.505Z,23.97
2019-01-22T17:16:38.250Z,31.87
2019-01-22T17:19:07.892Z,32.60
2019-01-22T17:21:38.685Z,25.33
2019-01-22T17:24:10.576Z,35.03
2019-01-22T17:26:40.951Z,37.57
2019-01-22T17:29:11.585Z,37.00
2019-01-22T17:32:04.366Z,36.37
2019-01-22T17:34:35.858Z,31.77
2019-01-22T17:37:07.422Z,29.17
2019-01-22T17:39:37.180Z,30.17
2019-01-22T17:42:06.903Z,37.83
2019-01-22T17:44:36.586Z,34.87
2019-01-22T17:47:06.434Z,34.83
2019-01-22T17:49:36.217Z,32.80
2019-01-22T17:52:06.003Z,43.67
2019-01-22T17:54:35.701Z,32.23
2019-01-22T17:57:06.914Z,30.20
2019-01-22T17:59:36.645Z,40.33
2019-01-22T18:02:06.597Z,34.87
2019-01-22T18:04:36.363Z,38.30
2019-01-22T18:07:06.133Z,28.43
2019-01-22T18:09:35.837Z,37.73
2019-01-22T18:12:05.603Z,29.03
2019-01-22T18:14:35.619Z,25.10
2019-01-22T18:17:05.431Z,39.90
2019-01-22T18:19:35.223Z,33.57
2019-01-22T18:22:05.435Z,25.30
2019-01-22T18:24:35.146Z,24.10
2019-01-22T18:27:04.929Z,27.30
2019-01-22T18:29:34.620Z,27.70
2019-01-22T18:32:04.990Z,27.43
2019-01-22T18:34:34.630Z,42.60
2019-01-22T18:37:05.209Z,22.57
2019-01-22T18:39:34.845Z,30.03
2019-01-22T18:42:04.974Z,30.53
2019-01-22T18:44:34.713Z,32.63
2019-01-22T18:47:04.942Z,26.13
2019-01-22T18:49:34.672Z,24.73
2019-01-22T18:52:05.176Z,29.17
2019-01-22T18:54:35.102Z,27.00
2019-01-22T18:57:05.208Z,21.57
2019-01-22T18:59:35.177Z,25.53
2019-01-22T19:02:05.094Z,25.95
2019-01-22T19:04:34.949Z,27.53
2019-01-22T19:07:04.988Z,25.30
2019-01-22T19:09:34.730Z,24.63
2019-01-22T19:12:04.782Z,26.33
2019-01-22T19:14:34.496Z,21.50
2019-01-22T19:17:04.950Z,28.77
2019-01-22T19:19:34.610Z,28.10
2019-01-22T19:22:05.034Z,26.83
2019-01-22T19:24:34.818Z,26.50
2019-01-22T19:27:04.940Z,29.53
2019-01-22T19:29:34.609Z,28.33
2019-01-22T19:32:04.923Z,19.27
2019-01-22T19:34:34.636Z,33.43
2019-01-22T19:37:05.134Z,23.10
2019-01-22T19:39:34.764Z,21.70
2019-01-22T19:42:07.670Z,25.10
2019-01-22T19:44:38.258Z,28.13
2019-01-22T19:47:08.053Z,27.17
2019-01-22T19:49:38.179Z,33.27
2019-01-22T19:52:34.772Z,28.30
2019-01-22T19:55:10.948Z,28.57
2019-01-22T19:57:41.351Z,26.97
2019-01-22T20:00:17.894Z,24.95
2019-01-22T20:02:49.681Z,30.27
2019-01-22T20:05:20.263Z,31.23
2019-01-22T20:07:50.298Z,25.87
2019-01-22T20:10:20.263Z,30.90
2019-01-22T20:12:51.278Z,21.17
2019-01-22T20:15:22.188Z,26.33
2019-01-22T20:17:52.680Z,26.83
2019-01-22T20:20:22.572Z,28.93
2019-01-22T20:22:52.278Z,26.23
2019-01-22T20:25:22.091Z,25.57
2019-01-22T20:27:51.791Z,26.57
2019-01-22T20:30:29.642Z,29.13
2019-01-22T20:32:59.358Z,27.33
2019-01-22T20:35:29.070Z,29.47
2019-01-22T20:37:58.921Z,21.90
2019-01-22T20:40:28.629Z,32.10
2019-01-22T20:42:58.244Z,25.03
2019-01-22T20:45:29.063Z,30.17
2019-01-22T20:47:58.937Z,21.90
2019-01-22T20:50:28.717Z,30.03
2019-01-22T20:52:58.462Z,30.57
2019-01-22T20:55:28.340Z,25.13
2019-01-22T20:57:58.056Z,30.13
2019-01-22T21:00:27.789Z,28.53
2019-01-22T21:02:57.473Z,29.13
2019-01-22T21:05:28.901Z,31.13
2019-01-22T21:07:58.678Z,32.50
2019-01-22T21:10:30.218Z,29.83
2019-01-22T21:13:00.631Z,34.90
2019-01-22T21:15:30.450Z,30.13
2019-01-22T21:18:00.162Z,32.27
2019-01-22T21:20:30.066Z,30.50
2019-01-22T21:22:59.734Z,30.33
2019-01-22T21:25:29.437Z,34.47
2019-01-22T21:28:01.812Z,33.93
2019-01-22T21:30:32.732Z,31.13
2019-01-22T21:33:02.954Z,30.00
2019-01-22T21:35:32.763Z,33.67
2019-01-22T21:38:02.484Z,35.40
2019-01-22T21:40:32.170Z,34.57
2019-01-22T21:43:01.839Z,32.63
2019-01-22T21:45:31.765Z,33.43
2019-01-22T21:48:01.438Z,33.57
2019-01-22T21:50:31.149Z,35.63
2019-01-22T21:53:00.858Z,33.20
2019-01-22T21:55:30.599Z,33.50
2019-01-22T21:58:00.262Z,26.33
2019-01-22T22:00:29.959Z,28.10
2019-01-22T22:02:59.678Z,33.17
2019-01-22T22:05:30.345Z,32.30
2019-01-22T22:08:00.117Z,34.60
2019-01-22T22:10:29.824Z,33.37
2019-01-22T22:12:59.681Z,34.43
2019-01-22T22:15:29.381Z,35.47
2019-01-22T22:17:59.218Z,33.77
2019-01-22T22:20:29.890Z,36.03
2019-01-22T22:22:59.534Z,35.27
2019-01-22T22:25:29.246Z,39.50
2019-01-22T22:27:59.158Z,37.77
2019-01-22T22:30:31.202Z,36.83
2019-01-22T22:33:00.937Z,36.10
2019-01-22T22:35:31.727Z,36.53
2019-01-22T22:38:01.636Z,37.37
2019-01-22T22:40:31.349Z,37.20
2019-01-22T22:43:00.985Z,37.20
2019-01-22T22:45:30.677Z,36.87
2019-01-22T22:48:00.381Z,37.43
2019-01-22T22:50:31.885Z,33.07
2019-01-22T22:53:01.655Z,30.83
2019-01-22T22:55:31.326Z,33.23
2019-01-22T22:58:00.990Z,34.60
2019-01-22T23:00:41.949Z,38.13
2019-01-22T23:03:13.607Z,30.47
2019-01-22T23:05:43.314Z,43.27
2019-01-22T23:08:13.134Z,43.70
2019-01-22T23:10:42.913Z,43.00
2019-01-22T23:13:12.553Z,43.47
2019-01-22T23:15:42.465Z,41.43
2019-01-22T23:18:12.284Z,31.80
2019-01-22T23:20:41.969Z,43.70
2019-01-22T23:23:11.681Z,43.00
2019-01-22T23:25:41.333Z,41.93
2019-01-22T23:28:11.018Z,42.50
2019-01-22T23:30:40.817Z,38.17
2019-01-22T23:33:10.437Z,47.73
2019-01-22T23:35:40.333Z,34.03
2019-01-22T23:38:09.965Z,48.47
2019-01-22T23:40:39.657Z,42.03
2019-01-22T23:43:09.276Z,45.37
2019-01-22T23:45:38.926Z,44.50
2019-01-22T23:48:08.668Z,46.97
2019-01-22T23:50:38.328Z,42.23
2019-01-22T23:53:08.030Z,35.67
2019-01-22T23:55:37.717Z,39.77
2019-01-22T23:58:07.351Z,38.30
